Time;durP1;ratioP1;P1;durP2;ratioP2;P2;SDS_P1;SDS_P2;PMS_P1;PMS_P2;Temp;Humidity;BMP_temperature;BMP_pressure;BME280_temperature;BME280_humidity;BME280_pressure;Samples;Min_cycle;Max_cycle;Signal;HPM_P1;HPM_P2
2021/09/07 00:04:29;;;;;;;30.85;16.58;;;;;;;11.65;91.90;101365.26;713861;1203;114018;-74
2021/09/07 00:19:32;;;;;;;29.85;17.18;;;;;;;11.58;92.88;101362.26;713781;1199;115818;-75
2021/09/07 00:34:35;;;;;;;19.08;10.43;;;;;;;11.53;93.25;101342.55;713789;1199;114885;-75
2021/09/07 00:49:37;;;;;;;22.03;11.73;;;;;;;11.27;93.91;101348.80;713750;1178;114361;-75
2021/09/07 01:04:40;;;;;;;14.03;8.40;;;;;;;11.12;93.99;101334.99;714360;1200;114313;-74
2021/09/07 01:19:45;;;;;;;12.48;7.18;;;;;;;10.91;93.78;101320.83;714235;1203;114740;-74
2021/09/07 01:34:48;;;;;;;18.83;10.27;;;;;;;10.78;94.45;101316.48;713898;1206;114154;-76
2021/09/07 01:49:50;;;;;;;23.20;10.98;;;;;;;10.66;94.58;101304.23;713784;1200;114907;-75
2021/09/07 02:04:52;;;;;;;17.23;9.43;;;;;;;10.53;94.97;101295.56;714577;1200;116492;-75
2021/09/07 02:19:54;;;;;;;18.23;9.33;;;;;;;10.30;95.47;101295.40;714751;1199;114818;-74
2021/09/07 02:34:57;;;;;;;17.40;9.33;;;;;;;10.21;95.98;101304.74;714053;1200;114323;-75
2021/09/07 02:49:59;;;;;;;15.15;8.13;;;;;;;10.18;96.06;101297.11;713611;1200;115358;-75
2021/09/07 03:05:02;;;;;;;14.63;8.40;;;;;;;10.07;96.13;101305.73;713735;1204;114697;-74
2021/09/07 03:20:05;;;;;;;11.87;7.13;;;;;;;9.93;96.07;101277.84;713850;1202;115621;-75
2021/09/07 03:35:07;;;;;;;11.80;7.13;;;;;;;9.75;96.26;101272.11;713876;1202;115472;-75
2021/09/07 03:50:12;;;;;;;14.65;7.78;;;;;;;9.56;98.18;101284.79;713851;1203;115380;-75
2021/09/07 04:05:15;;;;;;;19.60;8.85;;;;;;;9.48;97.54;101296.61;713956;1203;113690;-75
2021/09/07 04:20:17;;;;;;;15.13;8.35;;;;;;;9.31;98.47;101291.67;713979;1203;114252;-74
2021/09/07 04:35:19;;;;;;;25.60;11.23;;;;;;;9.26;99.23;101291.13;714109;1200;113778;-75
2021/09/07 04:50:22;;;;;;;23.58;11.55;;;;;;;9.25;99.89;101297.30;714182;1202;115855;-75
2021/09/07 05:05:24;;;;;;;25.05;12.75;;;;;;;9.30;99.31;101296.08;715528;1203;114299;-75
2021/09/07 05:20:27;;;;;;;20.83;10.95;;;;;;;9.56;100.00;101295.27;714175;1202;114440;-75
2021/09/07 05:35:29;;;;;;;17.87;8.77;;;;;;;10.21;100.00;101285.56;713926;1200;114997;-78
2021/09/07 05:50:32;;;;;;;17.50;8.67;;;;;;;11.07;100.00;101292.51;714070;1202;114903;-78
2021/09/07 06:05:35;;;;;;;17.30;8.20;;;;;;;12.01;100.00;101310.86;714219;1177;113662;-79
2021/09/07 06:20:38;;;;;;;14.00;7.58;;;;;;;12.96;99.33;101312.13;714044;1174;114447;-76
2021/09/07 06:35:40;;;;;;;13.30;6.20;;;;;;;14.24;96.46;101332.17;713863;1178;114407;-77
2021/09/07 06:50:42;;;;;;;26.45;17.05;;;;;;;15.52;93.16;101362.22;713860;1178;114007;-76
2021/09/07 07:05:45;;;;;;;8.73;5.33;;;;;;;16.88;88.10;101363.50;714376;1186;115112;-77
2021/09/07 07:20:47;;;;;;;6.83;3.48;;;;;;;18.21;82.22;101352.91;714052;1177;114034;-77
2021/09/07 07:35:49;;;;;;;5.65;3.43;;;;;;;19.35;75.66;101355.95;714507;1199;114677;-77
2021/09/07 07:50:51;;;;;;;4.30;3.17;;;;;;;19.66;70.20;101341.94;714408;1178;114102;-78
2021/09/07 08:05:53;;;;;;;9.33;4.27;;;;;;;20.42;66.63;101352.20;714057;1201;114294;-73
2021/09/07 08:20:56;;;;;;;3.93;2.48;;;;;;;21.13;63.27;101370.78;714384;1174;114657;-80
2021/09/07 08:35:58;;;;;;;3.30;2.20;;;;;;;21.64;60.90;101361.35;716084;1200;115569;-79
2021/09/07 08:51:01;;;;;;;6.53;3.57;;;;;;;22.36;59.07;101360.72;721659;1183;114092;-79
2021/09/07 09:06:25;;;;;;;4.38;2.68;;;;;;;22.60;56.61;101364.89;714879;1179;114045;-78
2021/09/07 09:21:30;;;;;;;6.33;3.15;;;;;;;23.16;55.52;101376.81;714242;1199;114002;-81
2021/09/07 09:36:32;;;;;;;5.28;2.50;;;;;;;23.04;53.51;101375.62;714428;1200;114012;-79
2021/09/07 09:51:35;;;;;;;7.57;2.33;;;;;;;23.85;52.85;101359.17;713783;1200;114475;-78
2021/09/07 10:06:57;;;;;;;5.03;3.75;;;;;;;24.60;51.68;101342.39;714859;1200;114202;-79
2021/09/07 10:37:21;;;;;;;4.30;2.48;;;;;;;25.30;49.07;101319.74;714116;1200;114028;-79
2021/09/07 10:52:27;;;;;;;3.78;2.00;;;;;;;25.69;48.40;101331.48;714191;1186;114866;-75
2021/09/07 11:07:32;;;;;;;2.98;1.83;;;;;;;25.90;47.46;101322.33;714129;1200;114392;-74
2021/09/07 11:22:35;;;;;;;4.85;2.15;;;;;;;25.90;46.88;101311.58;714118;1200;114506;-75
2021/09/07 11:37:38;;;;;;;2.53;1.60;;;;;;;26.39;46.02;101323.59;714361;1199;114971;-75
2021/09/07 11:52:44;;;;;;;3.60;1.90;;;;;;;27.27;45.24;101299.55;714217;1199;113780;-74
2021/09/07 12:07:53;;;;;;;3.27;1.73;;;;;;;27.83;44.65;101292.33;716170;1203;114130;-72
2021/09/07 12:22:55;;;;;;;2.83;1.70;;;;;;;28.01;44.97;101294.22;714024;1200;113958;-79
2021/09/07 12:37:59;;;;;;;7.57;3.37;;;;;;;28.01;45.45;101286.13;714797;1200;113919;-79
2021/09/07 12:53:04;;;;;;;4.20;2.10;;;;;;;28.26;45.32;101287.88;718550;1199;115831;-79
2021/09/07 13:08:11;;;;;;;6.83;3.20;;;;;;;27.89;44.34;101274.44;713948;1200;114838;-76
2021/09/07 13:23:14;;;;;;;8.45;3.25;;;;;;;28.30;43.27;101264.78;714162;1204;114547;-76
2021/09/07 13:38:17;;;;;;;6.93;2.95;;;;;;;28.85;43.08;101261.04;715392;1190;114084;-75
2021/09/07 13:53:20;;;;;;;3.18;2.18;;;;;;;31.36;41.28;101249.70;714234;1203;113870;-75
2021/09/07 14:08:22;;;;;;;7.53;5.63;;;;;;;32.20;39.66;101238.72;714205;1177;114049;-75
2021/09/07 14:23:26;;;;;;;9.80;3.30;;;;;;;34.75;39.56;101238.40;714644;1200;114344;-76
2021/09/07 14:38:29;;;;;;;6.45;1.90;;;;;;;40.50;36.60;101240.14;714658;1176;114012;-72
2021/09/07 14:53:32;;;;;;;4.57;1.90;;;;;;;42.75;34.67;101221.66;716142;1202;114140;-73
2021/09/07 15:08:36;;;;;;;3.73;2.58;;;;;;;42.34;33.77;101225.84;714814;1200;113988;-72
2021/09/07 15:23:39;;;;;;;4.53;2.60;;;;;;;33.66;37.69;101210.27;715325;1177;114918;-78
2021/09/07 15:38:42;;;;;;;5.33;2.00;;;;;;;36.44;35.25;101205.06;719922;1199;114009;-75
2021/09/07 15:53:47;;;;;;;7.68;4.43;;;;;;;33.30;37.23;101203.92;719027;1200;115013;-75
2021/09/07 16:08:50;;;;;;;7.88;5.10;;;;;;;32.91;36.86;101207.77;714661;1200;114822;-76
2021/09/07 16:23:54;;;;;;;11.00;7.93;;;;;;;27.48;42.16;101203.23;714405;1177;115161;-75
2021/09/07 16:38:58;;;;;;;23.75;14.80;;;;;;;24.72;45.19;101192.44;714486;1177;115477;-74
2021/09/07 16:54:15;;;;;;;7.63;4.47;;;;;;;22.76;48.97;101198.03;714353;1200;115517;-74
2021/09/07 17:09:18;;;;;;;7.50;2.88;;;;;;;21.36;50.81;101199.14;714392;1199;114723;-73
2021/09/07 17:24:20;;;;;;;28.83;16.50;;;;;;;20.14;53.88;101197.33;714259;1203;114247;-73
2021/09/07 17:54:44;;;;;;;38.80;15.30;;;;;;;18.35;58.98;101212.52;714453;1176;114335;-74
2021/09/07 18:09:47;;;;;;;20.70;15.25;;;;;;;17.63;61.80;101206.63;714432;1176;114419;-73
2021/09/07 18:24:49;;;;;;;37.70;20.35;;;;;;;17.20;64.57;101231.44;714191;1199;114407;-73
2021/09/07 18:39:52;;;;;;;79.90;42.90;;;;;;;16.92;66.26;101228.92;714235;1176;114382;-73
2021/09/07 18:54:54;;;;;;;45.70;23.50;;;;;;;16.48;68.07;101245.54;714125;1177;115419;-74
2021/09/07 19:09:57;;;;;;;15.93;10.43;;;;;;;15.92;68.88;101242.95;714485;1199;114540;-72
2021/09/07 19:25:00;;;;;;;50.93;24.18;;;;;;;15.59;70.95;101231.94;714857;1178;114802;-74
2021/09/07 19:40:04;;;;;;;29.85;14.08;;;;;;;15.21;72.42;101238.17;715151;1203;114832;-74
2021/09/07 19:55:09;;;;;;;105.65;37.10;;;;;;;14.85;73.91;101244.06;714728;1200;115063;-73
2021/09/07 20:10:12;;;;;;;66.53;28.75;;;;;;;14.53;75.46;101241.66;715197;1199;115733;-73
2021/09/07 20:25:15;;;;;;;24.93;12.07;;;;;;;14.09;75.85;101236.72;715896;1188;114368;-73
2021/09/07 20:40:18;;;;;;;47.15;21.05;;;;;;;13.78;78.08;101239.41;714863;1199;115412;-74
2021/09/07 20:55:20;;;;;;;33.30;16.00;;;;;;;13.55;79.33;101234.30;714768;1178;114340;-72
2021/09/07 21:10:22;;;;;;;92.37;38.17;;;;;;;13.35;80.39;101232.52;714610;1174;114992;-72
2021/09/07 21:25:25;;;;;;;41.30;19.38;;;;;;;13.12;81.22;101240.56;714385;1174;114370;-71
2021/09/07 21:40:27;;;;;;;24.70;11.33;;;;;;;12.82;82.21;101248.23;714478;1175;114249;-71
2021/09/07 21:55:29;;;;;;;19.53;11.78;;;;;;;12.63;82.66;101255.99;714325;1200;114559;-73
2021/09/07 22:10:32;;;;;;;37.48;17.88;;;;;;;12.38;84.39;101249.22;714669;1199;115114;-72
2021/09/07 22:25:35;;;;;;;45.50;20.50;;;;;;;12.14;84.88;101253.70;715351;1200;115364;-72
2021/09/07 22:40:37;;;;;;;36.28;17.45;;;;;;;11.96;85.19;101253.36;714771;1181;115933;-72
2021/09/07 22:55:39;;;;;;;53.28;20.78;;;;;;;11.83;86.10;101260.50;715348;1177;115177;-72
2021/09/07 23:10:42;;;;;;;50.68;22.25;;;;;;;11.64;87.20;101245.34;714550;1205;114828;-72
2021/09/07 23:25:44;;;;;;;22.05;12.98;;;;;;;11.36;87.73;101231.67;714461;1200;115556;-72
2021/09/07 23:40:46;;;;;;;32.63;16.28;;;;;;;11.22;89.12;101242.42;714390;1203;114422;-72
2021/09/07 23:55:48;;;;;;;35.15;18.45;;;;;;;11.19;88.96;101224.24;714339;1199;114439;-72
